Alto, TX

1:17 PM CDT on May 22, 2017 (GMT -0500)
Buckshot | | Change Station
Active Advisory: Flood Warning

Elev 336 ft 31.64 °N, 95.00 °W | Updated 3 seconds ago

Rain
Rain
66.0 °F
Feels Like 66.0 °F
N
1.8
Wind Variable Wind from NE
Gusts 3.8 mph

Today
High -- | Low -- °F
--% Chance of Precip.
Yesterday
High -- | Low -- °F
Precip. -- in
Pressure 30.05 in
Visibility 10.0 miles
Clouds Overcast 300 ft
Dew Point 66 °F
Humidity 99%
Rainfall 2.52 in
Snow Depth Not available.
6:19 AM 8:14 PM
Waning Crescent, 13% visible
METAR KJSO 221755Z AUTO 04005KT 10SM RA OVC003 17/17 A3005 RMK AO2 P0006 T01700170
Pressure 30.05 in
Visibility 10.0 miles
Clouds Overcast 300 ft
Dew Point 66 °F
Humidity 99%
Rainfall 2.52 in
Snow Depth Not available.
6:19 AM 8:14 PM
Waning Crescent, 13% visible
METAR KJSO 221755Z AUTO 04005KT 10SM RA OVC003 17/17 A3005 RMK AO2 P0006 T01700170

Get Your Daily Forecast Email!

Thanks for signing up!

Be on the lookout for a verification email in your inbox.

You'll start receiving severe weather alerts in your inbox..

×

10-Day Weather Forecast

Almanac

Astronomy

May. 22, 2017 Rise Set
Actual Time
Civil Twilight
Nautical Twilight
Astronomical Twilight
Moon
Length of Visible Light
Length of Day
Tomorrow will be .
, % of the Moon is Illuminated

Today's Extremes

State Highs State Lows

Community

WunderPhotos

Category 6

Welcome to Category 6. This is the collective home for Weather Underground's featured writeups by Dr. Jeff Masters (right), Bob Henson (left), Chris Burt, and other regular contributors.

Nearby

Air Quality

  Air Quality AQ Index Pollutant
Not available.

Snow Depth

Station Depth Elevation

Earthquake Activity

City Distance Mag. Time & Date
Minimum magnitude displayed is 2.5.

Coastal Water Temperatures

Place Temperature

Stations

Nearby Weather Stations

Station Location Temp. Windchill Dew Point Humidity Wind Precip. Elev Updated Type
                   

Watches & Warnings

Flood Warning
Issued: 12:37 PM CDT May. 22, 2017 – National Weather Service

... The Flood Warning extended until late Wednesday night... the Flood
Warning continues for
the Neches River near Neches.
* Until late Wednesday night... or until the warning is cancelled.
* At 11:30 am Monday the stage was 12.1 feet.
* Minor flooding is occurring and minor flooding is forecast.
* Flood stage is 12.0 feet.
* Forecast... the river will continue rising to near 12.8 feet by
tomorrow morning. The river will fall below flood stage late
Wednesday morning.
* Impact... at 12.0 feet... expect minor lowland flooding of the heavily
wooded floodplain. Ranchers that may have livestock and equipment
in the river bottoms should move them to higher ground. Expect
minor flooding of the boat ramp.


Lat... Lon 3205 9551 3167 9524 3166 9537 3180 9544 3188 9548


20